Aviation Digital Data Service (ADDS)

Output produced by METARs form (0041 UTC 23 October 2017)
found at http://www.aviationweather.gov/adds/metars/
 
KDUJ 222353Z AUTO 15006G14KT 10SM CLR 18/10 A3025 RMK AO2 SLP242 T01830100 10228 20183 53006
KDUJ 222253Z AUTO 13007KT 10SM CLR 19/09 A3023 RMK AO2 SLP234 T01940094
KDUJ 222153Z AUTO 13005KT 10SM CLR 21/09 A3022 RMK AO2 SLP229 T02060089
KDUJ 222053Z AUTO 11005KT 10SM CLR 21/09 A3023 RMK AO2 SLP232 T02110094 56015
KDUJ 221953Z AUTO 15007KT 110V190 10SM CLR 23/09 A3025 RMK AO2 SLP236 T02280094
KDUJ 221853Z AUTO 17005KT 10SM CLR 22/09 A3025 RMK AO2 SLP237 T02220089
KDUJ 221753Z AUTO 15007KT 10SM CLR 23/10 A3028 RMK AO2 SLP246 T02280100 10233 20117 58014 $
KDUJ 221653Z AUTO VRB04KT 10SM CLR 22/10 A3030 RMK AO2 SLP255 T02220100 $
KDUJ 221553Z AUTO VRB06KT 10SM CLR 21/09 A3032 RMK AO2 SLP261 T02060094 $
KDUJ 221453Z AUTO VRB06KT 10SM CLR 17/08 A3032 RMK AO2 SLP264 T01720083 58001 $
KDUJ 221353Z AUTO 12008KT 10SM CLR 15/07 A3033 RMK AO2 SLP270 T01500072
KDUJ 221253Z AUTO 11006KT 10SM CLR 13/07 A3034 RMK AO2 SLP270 T01330067
KDUJ 221153Z AUTO 11007KT 10SM CLR 11/06 A3033 RMK AO2 SLP268 T01110056 10133 20100 50005
KDUJ 221053Z AUTO 12004KT 10SM CLR 11/05 A3033 RMK AO2 SLP269 T01060050
KDUJ 220953Z AUTO 11005KT 10SM CLR 12/05 A3033 RMK AO2 SLP267 T01170050
KDUJ 220853Z AUTO 11004KT 10SM CLR 12/05 A3031 RMK AO2 SLP260 T01170050 53006
KDUJ 220753Z AUTO 12005KT 10SM CLR 12/05 A3029 RMK AO2 SLP252 T01220050
KDUJ 220653Z AUTO 13008KT 10SM CLR 13/05 A3029 RMK AO2 SLP251 T01280050
KDUJ 220553Z AUTO 13007KT 10SM CLR 13/05 A3029 RMK AO2 SLP251 T01330050 10167 20128 56007
KDUJ 220453Z AUTO 12006KT 10SM CLR 13/06 A3030 RMK AO2 SLP254 T01330056
KDUJ 220353Z AUTO 13007KT 10SM CLR 14/05 A3031 RMK AO2 SLP258 T01390050
KDUJ 220253Z AUTO 13008KT 10SM CLR 15/05 A3031 RMK AO2 SLP261 T01500050 58001
KDUJ 220153Z AUTO 13006KT 10SM CLR 15/05 A3032 RMK AO2 SLP266 T01500050
KDUJ 220053Z AUTO 11006KT 10SM CLR 16/06 A3032 RMK AO2 SLPNO T01610056
KDUJ 212353Z AUTO 12006KT 10SM CLR 17/05 A3032 RMK AO2 SLPNO T01670050 10222 20167 53007
KDUJ 212253Z AUTO 13005KT 10SM CLR 18/04 A3031 RMK AO2 SLPNO T01780044
KDUJ 212153Z AUTO 11006KT 10SM CLR 19/04 A3029 RMK AO2 SLPNO T01940044
KDUJ 212053Z AUTO 11005KT 10SM CLR 21/06 A3029 RMK AO2 SLPNO T02060056 56002
KDUJ 211953Z AUTO VRB03KT 10SM CLR 22/06 A3029 RMK AO2 SLPNO T02170056
KDUJ 211853Z AUTO 14006KT 10SM CLR 22/05 A3030 RMK AO2 SLPNO T02170050
KDUJ 211753Z AUTO VRB05KT 10SM CLR 22/04 A3030 RMK AO2 SLPNO T02170039 58014
KDUJ 211653Z AUTO VRB05KT 10SM CLR 21/04 A3032 RMK AO2 SLPNO T02110039
KDUJ 211553Z AUTO 18007KT 10SM CLR 18/03 A3033 RMK AO2 SLPNO T01830033
KDUJ 211453Z AUTO 12005KT 10SM CLR 17/04 A3034 RMK AO2 SLPNO T01670044 51006 $
KDUJ 211353Z AUTO 10004KT 10SM CLR 13/04 A3034 RMK AO2 SLPNO T01330044 $
KDUJ 211253Z AUTO A3033 RMK AO2 SLPNO PWINO FZRANO $